ONZ weather

Grosse Ile Municipal Airport
Detroit/Grosse Ile, Michigan, United States

Public forecast

Using degrees Fahrenheit for public forecast. Weather courtesy of forecast.io.

Current aviation weather report (METAR) for Grosse Ile Municipal Airport

Retrieved 2020/05/30 05:16 UTC (18 minutes ago):

KONZ 300516Z AUTO 30007KT 10SM OVC100 16/11 A2998 RMK AO2 T01570110

Closest aviation forecast (TAF) to Grosse Ile Municipal Airport

Closest forecast is Detroit Metropolitan Wayne County Airport, 10.9 nm (20.2 km) NW. Retrieved 2020-05-30 00:42 UTC (5 hours ago):

TAF KDTW 292339Z 3000/3106 29008KT P6SM FEW035 SCT150 FM300400 30007KT P6SM BKN045 FM301000 28010KT P6SM SCT050 FM301600 32012G18KT P6SM BKN050 FM310100 34008KT P6SM SCT060